Latest Weather Observations for Cowra

IDN60801

Issued at 10:04 pm EDT Friday 27 February 2015 (issued every 30 minutes, with the page automatically refreshed every 10 minutes)

About weather observations | Map of weather stations | Latest weather observations for NSW | Other Formats
Station Details ID: 065111 Name: COWRA AIRPORT AWS Lat: -33.84 Lon: 148.65 Height: 296.5 m
Data from the previous 72 hours. | See also: Recent months at Cowra
Date/Time
EDT
Temp
°C
App
Temp
°C
Dew
Point
Rel
Hum
%
Delta-T
°C
Wind Press
QNH
hPa
Press
MSL
hPa
Rain
since 9 am
mm
Dir
 
Spd
km/h
Gust
km/h
Spd
kts
Gust
kts
27/10:00pm 24.8 23.2 10.3 40 8.2 ENE 9 11 5 6 1009.0 - 0.0
27/09:30pm 23.8 22.2 8.2 37 8.4 SE 6 7 3 4 1008.9 - 0.0
27/09:00pm 24.9 23.4 8.4 35 9.0 SW 6 7 3 4 1008.4 1007.1 0.0
27/08:30pm 25.0 24.2 8.1 34 9.2 W 2 6 1 3 1008.2 - 0.0
27/08:00pm 27.8 27.6 9.1 31 10.4 CALM 0 0 0 0 1007.6 - 0.0
27/07:30pm 29.3 28.1 9.4 29 11.3 WNW 6 7 3 4 1007.2 - 0.0
27/07:00pm 30.1 28.6 8.5 26 12.1 NNW 6 7 3 4 1006.9 - 0.0
27/06:30pm 30.5 28.5 8.8 26 12.2 N 9 11 5 6 1006.9 - 0.0
27/06:00pm 31.2 30.0 9.4 26 12.5 NW 6 11 3 6 1007.0 1005.6 0.0
27/05:30pm 32.0 30.7 10.1 26 12.7 NW 7 13 4 7 1006.9 - 0.0
27/05:00pm 30.4 28.6 9.3 27 12.0 NNW 9 17 5 9 1007.0 - 0.0
27/04:30pm 32.1 30.9 10.2 26 12.7 WSW 7 15 4 8 1007.1 - 0.0
27/04:00pm 31.2 28.8 8.8 25 12.7 WNW 11 17 6 9 1007.3 - 0.0
27/03:30pm 31.7 29.8 10.4 27 12.4 NW 11 20 6 11 1007.6 - 0.0
27/03:00pm 30.8 29.2 10.2 28 11.9 N 9 20 5 11 1008.2 1006.9 0.0
27/02:30pm 30.7 28.6 9.6 27 12.0 N 11 20 6 11 1008.5 - 0.0
27/02:00pm 30.9 28.7 10.8 29 11.7 NW 13 24 7 13 1009.0 - 0.0
27/01:30pm 29.9 27.6 11.9 33 10.6 WNW 15 24 8 13 1009.4 - 0.0
27/01:00pm 29.6 28.4 12.9 35 10.0 W 11 20 6 11 1009.8 - 0.0
27/12:30pm 29.2 27.7 13.0 37 9.7 NW 13 22 7 12 1010.2 - 0.0
27/12:00pm 27.9 26.5 13.4 40 8.7 NW 13 20 7 11 1010.8 1009.5 0.0
27/11:30am 26.9 25.6 13.6 44 8.0 W 13 20 7 11 1010.8 - 0.0
27/11:00am 26.5 26.0 13.9 45 7.6 NNW 9 15 5 8 1011.0 - 0.0
27/10:30am 24.8 23.9 13.7 50 6.6 E 11 15 6 8 1011.0 - 0.0
27/10:00am 23.5 23.0 13.9 55 5.7 E 9 13 5 7 1011.0 - 0.0
27/09:30am 22.1 21.6 13.7 59 4.9 E 9 13 5 7 1011.1 - 0.0
27/09:00am 20.4 19.0 13.4 64 4.1 ESE 13 17 7 9 1011.1 1009.8 0.0
27/08:30am 19.6 19.2 14.0 70 3.3 ESE 9 13 5 7 1010.8 - 0.0
27/08:00am 17.2 17.0 13.1 77 2.3 S 6 7 3 4 1010.7 - 0.0
27/07:30am 15.9 15.5 12.5 80 1.9 S 6 7 3 4 1010.4 - 0.0
27/07:00am 15.2 15.1 12.1 82 1.7 S 4 7 2 4 1010.2 - 0.0
27/06:30am 15.4 14.8 12.3 82 1.7 SE 7 9 4 5 1009.7 - 0.0
27/06:00am 15.2 14.5 12.1 82 1.7 S 7 9 4 5 1009.5 1008.0 0.0
27/05:30am 16.6 15.9 13.1 80 2.0 SE 9 13 5 7 1009.2 - 0.0
27/05:00am 16.4 16.0 13.1 81 1.9 S 7 9 4 5 1009.1 - 0.0
27/04:30am 15.9 15.5 12.3 79 2.0 S 6 7 3 4 1009.3 - 0.0
27/04:00am 16.6 15.4 11.7 73 2.7 SSE 9 13 5 7 1009.2 - 0.0
27/03:30am 17.9 17.3 13.6 76 2.5 SE 9 11 5 6 1009.3 - 0.0
27/03:00am 18.1 17.4 13.2 73 2.8 ESE 9 11 5 6 1009.2 1007.8 0.0
27/02:30am 18.2 17.8 12.9 71 3.0 SSE 7 11 4 6 1009.2 - 0.0
27/02:00am 17.4 17.8 11.4 68 3.3 CALM 0 0 0 0 1009.1 - 0.0
27/01:30am 18.0 17.9 12.0 68 3.4 SSE 4 9 2 5 1009.3 - 0.0
27/01:00am 19.1 18.5 11.7 62 4.1 S 6 7 3 4 1009.5 - 0.0
27/12:30am 18.0 17.0 11.1 64 3.8 NE 7 13 4 7 1009.4 - 0.0
27/12:00am 19.0 19.4 11.1 60 4.4 CALM 0 6 0 3 1009.3 1007.9 0.0
 
Date/Time
EDT
Temp
°C
App
Temp
°C
Dew
Point
Rel
Hum
%
Delta-T
°C
Wind Press
QNH
hPa
Press
MSL
hPa
Rain
since 9 am
mm
Dir
 
Spd
km/h
Gust
km/h
Spd
kts
Gust
kts
26/11:30pm 21.1 20.4 11.4 54 5.4 SSE 6 9 3 5 1009.1 - 0.0
26/11:00pm 21.6 21.1 12.2 55 5.4 S 6 7 3 4 1009.1 - 0.0
26/10:30pm 21.6 20.3 11.3 52 5.8 SSE 9 13 5 7 1008.9 - 0.0
26/10:00pm 21.9 21.9 12.5 55 5.4 ESE 4 11 2 6 1009.0 - 0.0
26/09:30pm 23.8 23.2 12.4 48 6.6 ESE 7 11 4 6 1008.5 - 0.0
26/09:00pm 23.9 21.6 11.9 47 6.9 S 15 17 8 9 1008.1 1006.7 0.0
26/08:30pm 24.5 22.1 10.0 40 8.1 S 13 15 7 8 1007.3 - 0.0
26/08:00pm 25.4 22.9 8.4 34 9.3 SSW 11 13 6 7 1006.8 - 0.0
26/07:30pm 27.8 24.6 8.6 30 10.6 S 15 20 8 11 1006.4 - 0.0
26/07:00pm 29.0 25.3 10.2 31 10.7 S 20 28 11 15 1006.0 - 0.0
26/06:30pm 29.7 26.2 10.8 31 10.9 S 20 28 11 15 1005.7 - 0.0
26/06:00pm 30.4 26.2 8.2 25 12.4 SW 20 30 11 16 1005.5 1004.1 0.0
26/05:30pm 30.4 27.3 10.4 29 11.5 SSW 17 30 9 16 1005.5 - 0.0
26/05:00pm 30.1 27.2 11.1 31 11.1 SSW 17 22 9 12 1005.7 - 0.0
26/04:30pm 28.6 27.6 13.3 39 9.2 ESE 11 20 6 11 1006.0 - 0.0
26/04:00pm 27.5 27.0 15.8 48 7.3 E 13 17 7 9 1006.2 - 0.0
26/03:30pm 26.2 25.4 17.0 57 5.8 E 17 28 9 15 1006.6 - 0.0
26/03:00pm 27.8 29.0 15.8 48 7.5 NNE 4 17 2 9 1006.9 1005.5 0.0
26/02:30pm 28.9 28.2 16.5 47 7.8 NNW 15 28 8 15 1007.5 - 0.0
26/02:00pm 28.9 28.4 15.8 45 8.2 NNW 13 20 7 11 1007.6 - 0.0
26/01:30pm 27.7 26.9 16.0 49 7.3 N 15 26 8 14 1008.1 - 0.0
26/01:00pm 26.6 25.5 15.3 50 6.9 NNW 15 22 8 12 1008.6 - 0.0
26/12:30pm 26.4 26.7 16.0 52 6.5 NW 9 17 5 9 1009.5 - 0.0
26/12:00pm 24.9 24.1 15.0 54 6.0 NNW 13 17 7 9 1010.0 1008.6 0.0
26/11:30am 24.3 24.7 15.2 57 5.5 NNW 7 13 4 7 1010.4 - 0.0
26/11:00am 23.5 23.3 14.8 58 5.2 NE 9 15 5 8 1010.3 - 0.0
26/10:30am 22.0 23.5 14.6 63 4.4 CALM 0 0 0 0 1010.9 - 0.0
26/10:00am 21.6 23.2 15.0 66 4.0 CALM 0 6 0 3 1011.0 - 0.0
26/09:30am 20.7 21.8 14.6 68 3.6 N 2 7 1 4 1010.7 - 0.0
26/09:00am 19.9 20.2 14.5 71 3.2 E 6 7 3 4 1010.9 1009.5 0.8
26/08:30am 18.8 18.7 13.9 73 2.8 ESE 7 11 4 6 1010.7 - 0.8
26/08:00am 17.5 16.9 13.6 78 2.2 SSE 9 13 5 7 1010.8 - 0.8
26/07:30am 16.5 15.9 13.6 83 1.7 SSE 9 11 5 6 1010.5 - 0.8
26/07:00am 15.7 15.4 13.2 85 1.4 S 7 9 4 5 1010.5 - 0.8
26/06:30am 15.9 15.5 13.0 83 1.6 SE 7 9 4 5 1010.1 - 0.8
26/06:00am 16.2 15.6 13.5 84 1.5 SSE 9 11 5 6 1010.1 1008.7 0.8
26/05:30am 15.6 14.9 13.1 85 1.4 S 9 11 5 6 1009.9 - 0.8
26/05:00am 15.8 15.4 12.9 83 1.6 SSE 7 9 4 5 1009.7 - 0.8
26/04:30am 16.7 16.4 12.8 78 2.2 SE 6 9 3 5 1009.8 - 0.8
26/04:00am 17.8 17.8 13.7 77 2.4 SE 6 9 3 5 1010.0 - 0.8
26/03:30am 18.3 17.7 13.6 74 2.7 SE 9 11 5 6 1010.2 - 0.8
26/03:00am 18.5 17.9 13.6 73 2.8 SE 9 11 5 6 1010.6 1009.3 0.8
26/02:30am 18.7 18.6 13.8 73 2.8 ESE 7 9 4 5 1010.7 - 0.8
26/02:00am 18.9 18.7 13.7 72 3.0 ESE 7 11 4 6 1010.9 - 0.8
26/01:30am 18.7 18.6 13.3 71 3.1 ESE 6 9 3 5 1011.2 - 0.8
26/01:00am 19.5 19.3 13.7 69 3.4 ESE 7 11 4 6 1011.4 - 0.8
26/12:30am 19.3 19.1 13.5 69 3.4 E 7 13 4 7 1011.8 - 0.8
26/12:00am 20.4 20.3 13.8 66 3.9 E 7 13 4 7 1012.0 1010.7 0.8
 
Date/Time
EDT
Temp
°C
App
Temp
°C
Dew
Point
Rel
Hum
%
Delta-T
°C
Wind Press
QNH
hPa
Press
MSL
hPa
Rain
since 9 am
mm
Dir
 
Spd
km/h
Gust
km/h
Spd
kts
Gust
kts
25/11:30pm 20.8 19.1 13.7 64 4.1 E 15 20 8 11 1011.8 - 0.8
25/11:00pm 21.0 20.2 13.9 64 4.2 E 11 19 6 10 1012.2 - 0.8
25/10:30pm 21.3 20.9 14.2 64 4.2 E 9 11 5 6 1012.3 - 0.8
25/10:00pm 21.5 21.2 14.4 64 4.2 E 9 15 5 8 1012.1 - 0.8
25/09:30pm 22.0 21.3 14.4 62 4.5 E 11 15 6 8 1011.8 - 0.8
25/09:00pm 22.5 21.8 14.4 60 4.8 E 11 19 6 10 1011.5 1010.2 0.8
25/08:30pm 22.7 22.6 14.0 58 5.1 E 7 11 4 6 1011.2 - 0.8
25/08:00pm 23.5 22.4 14.2 56 5.5 ENE 13 17 7 9 1011.1 - 0.8
25/07:30pm 24.6 22.6 13.8 51 6.4 ESE 17 26 9 14 1010.9 - 0.8
25/07:00pm 24.9 23.8 15.2 54 5.9 E 15 24 8 13 1010.7 - 0.8
25/06:30pm 25.4 22.9 14.2 50 6.7 E 20 32 11 17 1010.0 - 0.8
25/06:00pm 27.3 25.4 15.3 48 7.4 E 19 30 10 16 1010.0 1008.6 0.8
25/05:30pm 27.5 26.1 16.5 51 6.9 ENE 19 28 10 15 1010.1 - 0.8
25/05:00pm 27.3 25.7 16.0 50 7.0 ENE 19 26 10 14 1010.4 - 0.8
25/04:30pm 26.6 26.1 16.8 55 6.2 ENE 15 20 8 11 1010.6 - 0.8
25/04:00pm 25.3 25.0 16.4 57 5.5 NNE 13 19 7 10 1011.1 - 0.8
25/03:30pm 22.7 22.1 17.6 73 3.2 NE 17 20 9 11 1011.7 - 0.8
25/03:00pm 21.2 21.0 18.4 84 1.8 NNE 17 22 9 12 1011.8 1010.5 0.8
25/02:40pm 19.8 17.4 17.4 86 1.5 NNW 26 52 14 28 1012.3 - 0.8
25/02:30pm 21.3 16.1 15.6 70 3.4 NW 37 54 20 29 1012.5 - 0.0
25/02:26pm 22.5 18.1 15.1 63 4.5 WNW 32 54 17 29 1012.6 - 0.0
25/02:24pm 22.9 18.2 14.2 58 5.2 WNW 32 46 17 25 1012.7 - 0.0
25/02:00pm 28.7 27.1 13.8 40 9.0 E 15 24 8 13 1012.2 - 0.0
25/01:30pm 28.7 26.7 13.8 40 9.0 ESE 17 24 9 13 1012.8 - 0.0
25/01:00pm 29.2 26.7 14.2 40 9.1 SE 20 30 11 16 1013.2 - 0.0
25/12:30pm 28.2 25.5 12.9 38 9.1 SE 19 26 10 14 1013.9 - 0.0
25/12:00pm 27.1 27.0 13.8 44 8.0 E 7 17 4 9 1014.5 1013.2 0.0
25/11:30am 27.8 26.5 13.7 42 8.5 ENE 13 24 7 13 1014.6 - 0.0
25/11:00am 26.7 25.8 13.8 45 7.7 E 11 20 6 11 1015.1 - 0.0
25/10:30am 26.2 24.7 14.3 48 7.2 E 15 24 8 13 1015.1 - 0.0
25/10:00am 24.4 21.9 13.6 51 6.4 ESE 19 28 10 15 1015.3 - 0.0
25/09:30am 23.7 21.7 13.8 53 5.9 ESE 17 28 9 15 1015.5 - 0.0
25/09:00am 23.2 21.3 14.2 57 5.4 SE 17 22 9 12 1015.8 1014.5 0.2
25/08:30am 21.6 20.0 13.8 61 4.6 SSE 15 20 8 11 1015.7 - 0.2
25/08:00am 20.7 19.9 13.9 65 4.0 SSE 11 15 6 8 1015.5 - 0.2
25/07:30am 19.0 18.9 13.8 72 3.0 S 7 9 4 5 1015.3 - 0.2
25/07:00am 18.7 18.2 13.8 73 2.8 SSE 9 13 5 7 1015.0 - 0.2
25/06:30am 18.0 17.3 13.3 74 2.7 SSE 9 11 5 6 1014.7 - 0.2
25/06:00am 18.6 17.6 13.5 72 2.9 SSE 11 13 6 7 1014.6 1013.2 0.2
25/05:30am 18.7 17.1 13.8 73 2.8 SSE 15 17 8 9 1014.4 - 0.2
25/05:00am 18.4 17.1 13.7 74 2.7 SSE 13 17 7 9 1014.2 - 0.2
25/04:30am 18.3 17.0 13.6 74 2.7 SSE 13 15 7 8 1014.0 - 0.2
25/04:00am 18.4 17.1 13.7 74 2.7 SSE 13 17 7 9 1014.1 - 0.2
25/03:30am 18.5 17.6 13.8 74 2.7 SSE 11 13 6 7 1014.1 - 0.2
25/03:00am 18.8 18.5 13.4 71 3.1 SSE 7 9 4 5 1014.1 1012.8 0.2
25/02:30am 19.7 19.2 13.9 69 3.4 SE 9 13 5 7 1014.4 - 0.2
25/02:00am 20.1 19.3 14.0 68 3.6 SE 11 15 6 8 1014.8 - 0.2
25/01:30am 20.5 19.8 14.2 67 3.7 SE 11 15 6 8 1015.0 - 0.2
25/01:00am 20.7 19.9 14.1 66 3.9 SE 11 15 6 8 1015.3 - 0.2
25/12:30am 21.3 20.2 14.2 64 4.2 SE 13 17 7 9 1015.4 - 0.2
25/12:00am 21.8 20.7 14.2 62 4.5 SE 13 20 7 11 1015.5 1014.1 0.2
 
Date/Time
EDT
Temp
°C
App
Temp
°C
Dew
Point
Rel
Hum
%
Delta-T
°C
Wind Press
QNH
hPa
Press
MSL
hPa
Rain
since 9 am
mm
Dir
 
Spd
km/h
Gust
km/h
Spd
kts
Gust
kts
24/11:30pm 22.2 21.0 14.1 60 4.8 SE 13 19 7 10 1015.3 - 0.2
24/11:00pm 23.0 21.9 14.3 58 5.2 SE 13 17 7 9 1015.0 - 0.2
24/10:30pm 23.3 22.6 14.3 57 5.4 SE 11 15 6 8 1014.9 - 0.2

Other Formats:

Comma delimited format used in spreadsheet applications
http://www.bom.gov.au/fwo/IDN60801/IDN60801.95721.axf

JavaScript Object Notation format (JSON) in row-major order
http://www.bom.gov.au/fwo/IDN60801/IDN60801.95721.json